Time;durP1;ratioP1;P1;durP2;ratioP2;P2;SDS_P1;SDS_P2;PMS_P1;PMS_P2;Temp;Humidity;BMP_temperature;BMP_pressure;BME280_temperature;BME280_humidity;BME280_pressure;Samples;Min_cycle;Max_cycle;Signal;HPM_P1;HPM_P2
2020/12/30 00:00:18;;;;;;;17.13;3.45;;;;;;;-1.64;100.00;98219.84;4860029;29;20084;-78
2020/12/30 00:03:21;;;;;;;24.27;3.15;;;;;;;-1.66;100.00;98220.28;4861602;29;20073;-79
2020/12/30 00:06:24;;;;;;;2.28;2.17;;;;;;;-1.69;100.00;98215.69;4861079;29;20565;-78
2020/12/30 00:09:26;;;;;;;10.70;4.10;;;;;;;-1.68;100.00;98228.16;4860878;29;20079;-79
2020/12/30 00:12:32;;;;;;;6.75;2.30;;;;;;;-1.69;100.00;98221.16;4860266;29;20129;-78
2020/12/30 00:15:35;;;;;;;8.30;3.65;;;;;;;-1.72;100.00;98224.75;4861234;29;20052;-78
2020/12/30 00:18:38;;;;;;;6.72;3.80;;;;;;;-1.74;100.00;98229.91;4861369;29;20507;-78
2020/12/30 00:21:40;;;;;;;4.85;2.25;;;;;;;-1.74;100.00;98227.16;4860998;29;20081;-79
2020/12/30 00:24:43;;;;;;;7.47;3.10;;;;;;;-1.81;100.00;98224.63;4861186;29;20517;-78
2020/12/30 00:27:46;;;;;;;7.22;3.10;;;;;;;-1.88;100.00;98227.53;4849766;29;20121;-79
2020/12/30 00:30:49;;;;;;;1.83;1.73;;;;;;;-1.96;100.00;98228.94;4860477;29;20137;-78
2020/12/30 00:33:52;;;;;;;1.80;1.52;;;;;;;-2.02;100.00;98225.22;4849209;29;20101;-78
2020/12/30 00:36:55;;;;;;;10.18;3.90;;;;;;;-2.04;100.00;98233.06;4861236;29;20409;-78
2020/12/30 00:39:58;;;;;;;6.35;3.15;;;;;;;-2.11;100.00;98232.47;4861179;29;20064;-78
2020/12/30 00:43:00;;;;;;;20.90;3.92;;;;;;;-2.16;100.00;98225.59;4861095;29;20053;-78
2020/12/30 00:46:03;;;;;;;8.18;3.20;;;;;;;-2.24;100.00;98229.69;4860743;29;20097;-79
2020/12/30 00:49:06;;;;;;;8.95;4.03;;;;;;;-2.30;100.00;98231.44;4860154;29;20109;-79
2020/12/30 00:52:09;;;;;;;18.20;4.95;;;;;;;-2.28;100.00;98233.72;4861830;29;20097;-78
2020/12/30 00:55:12;;;;;;;2.20;1.95;;;;;;;-2.26;100.00;98232.09;4861427;29;20052;-79
2020/12/30 00:58:15;;;;;;;13.55;3.58;;;;;;;-2.29;100.00;98238.41;4859744;29;20120;-79
2020/12/30 01:01:18;;;;;;;6.20;3.30;;;;;;;-2.31;100.00;98240.78;4859490;29;20057;-79
2020/12/30 01:04:22;;;;;;;7.00;3.22;;;;;;;-2.34;100.00;98247.84;4860475;29;20139;-79
2020/12/30 01:07:25;;;;;;;8.70;3.03;;;;;;;-2.34;100.00;98238.94;4860762;29;20193;-79
2020/12/30 01:10:28;;;;;;;3.97;3.35;;;;;;;-2.38;100.00;98243.69;4859292;29;20061;-79
2020/12/30 01:13:30;;;;;;;28.98;4.50;;;;;;;-2.45;100.00;98246.63;4859918;29;20060;-78
2020/12/30 01:16:33;;;;;;;9.05;3.88;;;;;;;-2.46;100.00;98242.34;4860670;29;20489;-79
2020/12/30 01:19:36;;;;;;;14.63;3.40;;;;;;;-2.48;100.00;98245.50;4870249;29;20078;-79
2020/12/30 01:22:38;;;;;;;12.70;4.25;;;;;;;-2.48;100.00;98258.34;4860299;29;20078;-79
2020/12/30 01:25:44;;;;;;;10.68;3.05;;;;;;;-2.49;100.00;98251.38;4860020;29;20080;-79
2020/12/30 01:28:47;;;;;;;3.88;2.72;;;;;;;-2.49;100.00;98262.28;4870223;29;20125;-78
2020/12/30 01:31:50;;;;;;;4.72;3.00;;;;;;;-2.49;100.00;98262.28;4860422;29;20072;-79
2020/12/30 01:34:52;;;;;;;17.80;3.22;;;;;;;-2.44;100.00;98269.94;4860300;29;20198;-78
2020/12/30 01:37:55;;;;;;;5.88;3.05;;;;;;;-2.36;100.00;98274.03;4859970;29;20455;-79
2020/12/30 01:40:59;;;;;;;9.25;3.33;;;;;;;-2.30;100.00;98269.59;4859068;29;20059;-78
2020/12/30 01:44:07;;;;;;;4.03;2.53;;;;;;;-2.24;100.00;98270.59;4870043;29;20052;-78
2020/12/30 01:47:10;;;;;;;4.72;2.15;;;;;;;-2.20;100.00;98271.28;4860390;29;20095;-78
2020/12/30 01:50:14;;;;;;;8.15;3.65;;;;;;;-2.16;100.00;98271.94;4858801;29;20566;-79
2020/12/30 01:53:19;;;;;;;4.13;2.80;;;;;;;-2.11;100.00;98273.38;4860029;29;20053;-79
2020/12/30 01:56:27;;;;;;;4.22;2.90;;;;;;;-2.08;100.00;98278.00;4841430;29;20090;-79
2020/12/30 01:59:30;;;;;;;9.40;3.40;;;;;;;-2.06;100.00;98279.09;4841159;29;20106;-78
2020/12/30 02:02:34;;;;;;;7.07;2.75;;;;;;;-2.05;100.00;98285.28;4840934;29;20778;-78
2020/12/30 02:05:37;;;;;;;7.10;4.00;;;;;;;-2.05;100.00;98269.72;4840399;29;20071;-76
2020/12/30 02:08:40;;;;;;;4.03;2.13;;;;;;;-2.02;100.00;98274.31;4841052;29;20411;-78
2020/12/30 02:11:43;;;;;;;23.00;3.33;;;;;;;-2.03;100.00;98289.13;4841410;29;20106;-77
2020/12/30 02:14:46;;;;;;;17.10;5.30;;;;;;;-2.02;100.00;98293.41;4841050;29;20191;-76
2020/12/30 02:17:48;;;;;;;8.52;4.65;;;;;;;-2.03;100.00;98294.59;4839584;29;20647;-76
2020/12/30 02:20:51;;;;;;;10.70;2.83;;;;;;;-2.06;100.00;98300.13;4841083;29;20049;-79
2020/12/30 02:23:56;;;;;;;9.13;4.57;;;;;;;-2.03;100.00;98305.50;4840366;29;20056;-79
2020/12/30 02:27:01;;;;;;;7.57;3.03;;;;;;;-2.02;100.00;98301.59;4840493;29;20075;-79
2020/12/30 02:30:05;;;;;;;9.52;3.03;;;;;;;-1.98;100.00;98304.97;4829757;29;20075;-78
2020/12/30 02:33:09;;;;;;;12.43;4.80;;;;;;;-1.96;100.00;98297.13;4842491;29;20129;-79
2020/12/30 02:36:12;;;;;;;4.93;2.47;;;;;;;-1.92;100.00;98300.53;4844599;29;20057;-78
2020/12/30 02:39:15;;;;;;;13.20;5.43;;;;;;;-1.90;100.00;98303.59;4843773;29;20053;-78
2020/12/30 02:42:18;;;;;;;5.25;2.42;;;;;;;-1.89;100.00;98304.34;4832882;29;20114;-78
2020/12/30 02:45:24;;;;;;;4.45;2.63;;;;;;;-1.85;100.00;98305.81;4844566;29;20486;-79
2020/12/30 02:48:27;;;;;;;15.20;4.45;;;;;;;-1.81;100.00;98306.47;4844459;29;20573;-79
2020/12/30 02:51:30;;;;;;;13.25;4.00;;;;;;;-1.76;100.00;98302.44;4844361;29;20198;-78
2020/12/30 02:54:33;;;;;;;10.30;1.90;;;;;;;-1.72;100.00;98301.16;4839984;29;20048;-79
2020/12/30 02:57:36;;;;;;;18.80;3.65;;;;;;;-1.69;100.00;98308.47;4862944;29;20074;-78
2020/12/30 03:00:38;;;;;;;11.50;3.35;;;;;;;-1.63;100.00;98304.03;4851007;29;20522;-79
2020/12/30 03:03:44;;;;;;;4.13;3.58;;;;;;;-1.61;100.00;98301.66;4862672;29;20049;-79
2020/12/30 03:06:47;;;;;;;12.38;4.38;;;;;;;-1.59;100.00;98312.13;4862558;29;20137;-79
2020/12/30 03:09:50;;;;;;;18.20;3.47;;;;;;;-1.60;100.00;98303.16;4850898;29;20553;-78
2020/12/30 03:12:52;;;;;;;11.57;3.58;;;;;;;-1.61;100.00;98315.28;4862948;29;20112;-79
2020/12/30 03:15:55;;;;;;;8.52;3.92;;;;;;;-1.62;100.00;98313.75;4862400;29;20101;-79
2020/12/30 03:18:58;;;;;;;18.35;4.88;;;;;;;-1.59;100.00;98318.34;4862523;29;20056;-78
2020/12/30 03:22:01;;;;;;;3.53;1.55;;;;;;;-1.58;100.00;98313.63;4862601;29;20052;-79
2020/12/30 03:25:04;;;;;;;4.50;1.90;;;;;;;-1.56;100.00;98312.00;4850670;29;20076;-79
2020/12/30 03:28:06;;;;;;;9.27;2.63;;;;;;;-1.51;100.00;98307.97;4862179;29;20509;-78
2020/12/30 03:31:09;;;;;;;18.30;4.40;;;;;;;-1.49;100.00;98310.31;4862379;29;20909;-79
2020/12/30 03:34:12;;;;;;;2.45;2.25;;;;;;;-1.45;100.00;98310.97;4862049;29;20406;-79
2020/12/30 03:37:15;;;;;;;18.75;4.53;;;;;;;-1.39;100.00;98311.97;4862309;29;20056;-79
2020/12/30 03:40:18;;;;;;;8.10;3.13;;;;;;;-1.34;100.00;98312.19;4862255;29;20120;-80
2020/12/30 03:43:21;;;;;;;4.50;3.42;;;;;;;-1.31;100.00;98311.31;4861831;29;20467;-79
2020/12/30 03:46:24;;;;;;;9.23;2.55;;;;;;;-1.28;100.00;98304.22;4861793;29;20056;-79
2020/12/30 03:49:27;;;;;;;21.75;3.63;;;;;;;-1.25;100.00;98308.81;4861732;29;20105;-79
2020/12/30 03:52:29;;;;;;;11.88;3.35;;;;;;;-1.23;100.00;98311.88;4850468;29;20141;-79
2020/12/30 03:55:32;;;;;;;8.55;2.97;;;;;;;-1.23;100.00;98304.44;4861710;29;20407;-79
2020/12/30 03:58:35;;;;;;;25.55;3.58;;;;;;;-1.20;100.00;98311.00;4861899;29;20070;-79
2020/12/30 04:01:38;;;;;;;3.83;2.97;;;;;;;-1.24;100.00;98313.84;4861632;29;20057;-79
2020/12/30 04:04:40;;;;;;;7.75;4.20;;;;;;;-1.22;100.00;98310.69;4871471;29;20136;-79
2020/12/30 04:07:43;;;;;;;12.35;3.50;;;;;;;-1.23;100.00;98312.66;4861896;29;20072;-79
2020/12/30 04:10:46;;;;;;;5.45;2.63;;;;;;;-1.21;100.00;98304.03;4861285;29;20201;-79
2020/12/30 04:13:49;;;;;;;4.05;3.10;;;;;;;-1.25;100.00;98304.13;4861364;29;20105;-79
2020/12/30 04:16:54;;;;;;;10.85;3.60;;;;;;;-1.29;100.00;98302.69;4860835;29;20664;-79
2020/12/30 04:19:57;;;;;;;7.53;2.58;;;;;;;-1.32;100.00;98309.03;4860384;29;20052;-79
2020/12/30 04:22:59;;;;;;;9.63;2.75;;;;;;;-1.40;100.00;98307.69;4861465;29;20095;-80
2020/12/30 04:26:02;;;;;;;6.50;3.50;;;;;;;-1.41;100.00;98317.09;4860343;29;20068;-79
2020/12/30 04:29:05;;;;;;;2.97;2.38;;;;;;;-1.37;100.00;98323.97;4860991;29;20101;-79
2020/12/30 04:32:08;;;;;;;6.88;2.90;;;;;;;-1.36;100.00;98316.53;4861172;29;20113;-79
2020/12/30 04:35:11;;;;;;;16.48;2.88;;;;;;;-1.34;100.00;98316.91;4870881;29;20125;-79
2020/12/30 04:38:14;;;;;;;7.95;4.05;;;;;;;-1.34;100.00;98317.63;4860943;29;20129;-79
2020/12/30 04:41:27;;;;;;;6.07;3.58;;;;;;;-1.36;100.00;98305.63;4860996;29;20064;-79
2020/12/30 04:44:33;;;;;;;2.65;2.30;;;;;;;-1.38;100.00;98305.28;4860887;29;20056;-79
2020/12/30 04:47:36;;;;;;;18.45;4.53;;;;;;;-1.39;100.00;98306.50;4860311;29;20060;-79
2020/12/30 04:50:39;;;;;;;6.18;3.25;;;;;;;-1.36;100.00;98302.88;4860476;29;20101;-79
2020/12/30 04:53:45;;;;;;;6.43;3.70;;;;;;;-1.31;100.00;98311.31;4860842;29;20140;-79
2020/12/30 04:56:57;;;;;;;8.50;3.90;;;;;;;-1.25;100.00;98317.00;4859800;29;20509;-79
2020/12/30 05:00:05;;;;;;;16.30;2.88;;;;;;;-1.16;100.00;98311.69;4860592;29;20407;-80
2020/12/30 05:03:09;;;;;;;5.00;1.98;;;;;;;-1.06;100.00;98305.91;4849159;29;20078;-80
2020/12/30 05:06:15;;;;;;;2.10;1.70;;;;;;;-0.93;100.00;98319.56;4848946;29;20497;-79
2020/12/30 05:09:20;;;;;;;2.80;2.17;;;;;;;-0.86;100.00;98303.72;4860410;29;20187;-80
2020/12/30 05:12:24;;;;;;;9.93;2.17;;;;;;;-0.81;100.00;98299.69;4860501;29;20519;-79
2020/12/30 05:15:27;;;;;;;2.35;1.42;;;;;;;-0.76;100.00;98302.63;4860396;29;20053;-79
2020/12/30 05:18:30;;;;;;;4.45;2.30;;;;;;;-0.68;100.00;98314.13;4860512;29;20121;-79
2020/12/30 05:21:33;;;;;;;3.13;2.05;;;;;;;-0.66;100.00;98308.97;4860222;29;20521;-79
2020/12/30 05:24:36;;;;;;;4.40;2.17;;;;;;;-0.64;100.00;98314.00;4859965;29;20136;-79
2020/12/30 05:27:39;;;;;;;2.85;1.98;;;;;;;-0.67;100.00;98310.19;4867587;29;20056;-79
2020/12/30 05:30:43;;;;;;;1.15;0.50;;;;;;;-0.65;100.00;98317.97;4861422;29;20130;-79
2020/12/30 05:33:46;;;;;;;8.90;1.92;;;;;;;-0.61;100.00;98324.84;4860353;29;20103;-79
2020/12/30 05:36:51;;;;;;;1.40;1.30;;;;;;;-0.57;100.00;98325.50;4848937;29;20078;-79
2020/12/30 05:39:54;;;;;;;2.40;2.22;;;;;;;-0.55;100.00;98323.09;4860136;29;20406;-81
2020/12/30 05:43:11;;;;;;;4.43;1.92;;;;;;;-0.53;100.00;98326.16;4848800;29;20406;-80
2020/12/30 05:46:28;;;;;;;1.05;1.02;;;;;;;-0.52;100.00;98324.94;4859896;29;20144;-79
2020/12/30 05:49:33;;;;;;;1.17;1.10;;;;;;;-0.51;100.00;98322.97;4859763;29;20069;-79
2020/12/30 05:52:36;;;;;;;2.75;1.40;;;;;;;-0.50;100.00;98329.97;4859955;29;20076;-79
2020/12/30 05:55:39;;;;;;;0.68;0.68;;;;;;;-0.47;100.00;98338.06;4855647;29;20061;-79
2020/12/30 05:58:43;;;;;;;3.03;1.17;;;;;;;-0.47;100.00;98340.78;4859808;29;20559;-78
2020/12/30 06:01:50;;;;;;;0.70;0.55;;;;;;;-0.46;100.00;98347.81;4859784;29;20113;-79
2020/12/30 06:05:07;;;;;;;1.90;0.57;;;;;;;-0.44;100.00;98353.59;4858998;29;20056;-79
2020/12/30 06:08:17;;;;;;;8.80;0.90;;;;;;;-0.44;100.00;98347.34;4859701;29;20117;-79
2020/12/30 06:11:24;;;;;;;2.17;1.08;;;;;;;-0.43;100.00;98346.13;4858873;29;20049;-78
2020/12/30 06:14:30;;;;;;;10.13;2.42;;;;;;;-0.44;100.00;98339.94;4859981;29;20052;-79
2020/12/30 06:17:33;;;;;;;0.50;0.30;;;;;;;-0.42;100.00;98340.25;4860175;29;20411;-79
2020/12/30 06:20:38;;;;;;;4.28;1.58;;;;;;;-0.39;100.00;98350.28;4859895;29;20143;-79
2020/12/30 06:23:42;;;;;;;1.75;1.50;;;;;;;-0.39;100.00;98339.34;4858914;29;20117;-79
2020/12/30 06:26:45;;;;;;;4.97;1.08;;;;;;;-0.41;100.00;98343.75;4858394;29;20114;-79
2020/12/30 06:29:51;;;;;;;2.30;1.13;;;;;;;-0.43;100.00;98346.13;4859359;29;20055;-81
2020/12/30 06:32:59;;;;;;;5.70;1.63;;;;;;;-0.43;100.00;98346.91;4859578;29;20479;-79
2020/12/30 06:36:02;;;;;;;1.35;1.10;;;;;;;-0.42;100.00;98356.66;4859583;29;20072;-78
2020/12/30 06:39:19;;;;;;;1.30;1.17;;;;;;;-0.41;100.00;98360.91;4859504;29;20049;-79
2020/12/30 06:42:30;;;;;;;5.47;1.35;;;;;;;-0.45;100.00;98371.19;4859338;29;20061;-79
2020/12/30 06:45:45;;;;;;;6.07;1.40;;;;;;;-0.44;100.00;98361.81;4859286;29;20052;-78
2020/12/30 06:48:57;;;;;;;4.97;1.42;;;;;;;-0.45;100.00;98364.94;4859308;29;20194;-79
2020/12/30 06:52:00;;;;;;;1.40;1.25;;;;;;;-0.46;100.00;98364.22;4858727;29;20113;-78
2020/12/30 06:55:02;;;;;;;2.80;1.25;;;;;;;-0.45;100.00;98376.66;4859741;29;20419;-80
2020/12/30 06:58:05;;;;;;;2.58;1.45;;;;;;;-0.43;100.00;98378.94;4859424;29;20052;-79
2020/12/30 07:01:08;;;;;;;1.38;1.13;;;;;;;-0.42;100.00;98377.75;4858304;29;20188;-79
2020/12/30 07:04:11;;;;;;;1.58;1.08;;;;;;;-0.41;100.00;98377.31;4859115;29;20060;-79
2020/12/30 07:07:20;;;;;;;3.20;0.90;;;;;;;-0.40;100.00;98384.31;4858691;29;20144;-79
2020/12/30 07:10:24;;;;;;;4.82;1.35;;;;;;;-0.39;100.00;98388.56;4858498;29;20096;-79
2020/12/30 07:13:27;;;;;;;2.33;1.00;;;;;;;-0.38;100.00;98381.16;4859079;29;20515;-79
2020/12/30 07:16:35;;;;;;;3.72;1.48;;;;;;;-0.39;100.00;98380.38;4858001;29;20076;-79
2020/12/30 07:19:42;;;;;;;3.03;1.02;;;;;;;-0.41;100.00;98382.03;4860455;29;20045;-80
2020/12/30 07:22:46;;;;;;;10.10;2.90;;;;;;;-0.49;100.00;98386.19;4862043;29;20522;-79
2020/12/30 07:25:50;;;;;;;1.38;0.82;;;;;;;-0.53;100.00;98388.25;4850537;29;20415;-79
2020/12/30 07:28:57;;;;;;;4.97;2.10;;;;;;;-0.55;100.00;98387.94;4850359;29;20052;-79
2020/12/30 07:32:03;;;;;;;5.25;1.55;;;;;;;-0.60;100.00;98386.50;4862422;29;20086;-78
2020/12/30 07:35:07;;;;;;;6.90;2.78;;;;;;;-0.62;100.00;98404.53;4862350;29;20554;-79
2020/12/30 07:38:12;;;;;;;2.58;1.33;;;;;;;-0.65;100.00;98395.22;4860861;29;20141;-78
2020/12/30 07:41:24;;;;;;;4.65;2.17;;;;;;;-0.63;100.00;98408.47;4854841;29;20560;-78
2020/12/30 07:44:29;;;;;;;6.78;2.85;;;;;;;-0.60;100.00;98407.59;4859730;29;20051;-80
2020/12/30 07:47:32;;;;;;;3.60;1.67;;;;;;;-0.57;100.00;98406.72;4852471;29;20049;-80
2020/12/30 07:50:49;;;;;;;1.63;1.33;;;;;;;-0.55;100.00;98407.84;4855946;29;20529;-80
2020/12/30 07:53:52;;;;;;;8.80;2.50;;;;;;;-0.56;100.00;98417.22;4844300;29;20087;-79
2020/12/30 07:57:05;;;;;;;4.40;2.35;;;;;;;-0.59;100.00;98420.84;4855976;29;20113;-78
2020/12/30 08:00:11;;;;;;;8.77;1.38;;;;;;;-0.60;100.00;98424.78;4843092;29;20061;-79
2020/12/30 08:03:14;;;;;;;0.55;0.55;;;;;;;-0.65;100.00;98425.31;4831915;29;20190;-79
2020/12/30 08:06:17;;;;;;;3.58;1.25;;;;;;;-0.70;100.00;98416.88;4831954;29;20071;-79
2020/12/30 08:09:25;;;;;;;4.45;2.05;;;;;;;-0.76;100.00;98425.63;4843179;29;20070;-79
2020/12/30 08:12:28;;;;;;;6.65;3.97;;;;;;;-0.81;100.00;98428.13;4843100;29;20061;-79
2020/12/30 08:15:31;;;;;;;2.25;1.38;;;;;;;-0.84;100.00;98431.72;4843166;29;20048;-78
2020/12/30 08:18:33;;;;;;;2.90;1.67;;;;;;;-0.90;100.00;98434.22;4844940;29;20128;-79
2020/12/30 08:21:36;;;;;;;7.35;1.77;;;;;;;-0.96;100.00;98440.66;4860598;29;20110;-76
2020/12/30 08:24:40;;;;;;;4.28;1.65;;;;;;;-0.99;100.00;98438.78;4842663;29;20410;-75
2020/12/30 08:27:43;;;;;;;1.65;1.58;;;;;;;-1.04;100.00;98444.78;4842606;29;20077;-77
2020/12/30 08:30:46;;;;;;;0.60;0.60;;;;;;;-1.15;100.00;98438.84;4841558;29;20056;-77
2020/12/30 08:33:52;;;;;;;0.95;0.95;;;;;;;-1.20;100.00;98450.28;4842215;29;20110;-77
2020/12/30 08:37:03;;;;;;;0.88;0.73;;;;;;;-1.26;100.00;98454.75;4842358;29;20057;-78
2020/12/30 08:40:16;;;;;;;2.55;1.15;;;;;;;-1.29;100.00;98455.59;4842782;29;20052;-78
2020/12/30 08:43:43;;;;;;;2.35;1.73;;;;;;;-1.35;100.00;98451.88;4842175;29;20425;-77
2020/12/30 08:46:53;;;;;;;0.93;0.93;;;;;;;-1.40;100.00;98455.09;4842408;29;20060;-79
2020/12/30 08:50:00;;;;;;;1.15;1.05;;;;;;;-1.37;100.00;98457.00;4842310;29;20057;-78
2020/12/30 08:53:03;;;;;;;11.60;3.00;;;;;;;-1.38;100.00;98460.91;4842253;29;20075;-76
2020/12/30 08:56:07;;;;;;;0.82;0.82;;;;;;;-1.42;100.00;98460.22;4842177;29;20072;-76
2020/12/30 08:59:20;;;;;;;8.30;1.70;;;;;;;-1.43;100.00;98469.63;4844118;29;20060;-76
2020/12/30 09:02:23;;;;;;;2.38;1.02;;;;;;;-1.44;100.00;98465.34;4841901;29;20140;-76
2020/12/30 09:05:31;;;;;;;5.05;1.65;;;;;;;-1.32;100.00;98467.41;4842272;29;20056;-76
2020/12/30 09:08:33;;;;;;;12.52;5.88;;;;;;;-1.14;100.00;98467.69;4842092;29;20106;-76
2020/12/30 09:11:38;;;;;;;7.03;5.55;;;;;;;-0.99;100.00;98464.13;4842246;29;20106;-77
2020/12/30 09:14:41;;;;;;;12.45;4.53;;;;;;;-0.90;100.00;98477.16;4841944;29;20505;-76
2020/12/30 09:17:57;;;;;;;16.10;4.47;;;;;;;-0.85;100.00;98474.69;4841988;29;20052;-75
2020/12/30 09:21:00;;;;;;;12.07;4.22;;;;;;;-0.82;100.00;98473.03;4841796;29;20117;-75
2020/12/30 09:24:12;;;;;;;8.50;2.03;;;;;;;-0.81;100.00;98483.56;4842169;29;20053;-77
2020/12/30 09:27:22;;;;;;;5.07;2.83;;;;;;;-0.78;100.00;98473.72;4842057;29;20407;-78
2020/12/30 09:30:27;;;;;;;8.25;1.95;;;;;;;-0.74;100.00;98476.34;4841622;29;20140;-77
2020/12/30 09:33:31;;;;;;;1.35;1.05;;;;;;;-0.67;100.00;98473.44;4841474;29;20057;-79
2020/12/30 09:36:34;;;;;;;1.35;1.25;;;;;;;-0.62;100.00;98470.91;4841799;29;20102;-75
2020/12/30 09:39:37;;;;;;;4.85;2.15;;;;;;;-0.59;100.00;98475.53;4841993;29;20057;-75
2020/12/30 09:42:42;;;;;;;3.17;1.10;;;;;;;-0.44;100.00;98479.38;4841737;29;20057;-75
2020/12/30 09:45:46;;;;;;;0.75;0.60;;;;;;;-0.31;100.00;98469.22;4842071;29;20077;-76
2020/12/30 09:48:49;;;;;;;4.82;1.65;;;;;;;-0.21;100.00;98470.88;4841880;29;20205;-75
2020/12/30 09:51:55;;;;;;;1.75;1.02;;;;;;;-0.16;100.00;98475.03;4841828;29;20514;-75
2020/12/30 09:54:58;;;;;;;3.33;2.00;;;;;;;-0.22;100.00;98476.78;4851667;29;20052;-75
2020/12/30 09:58:02;;;;;;;0.98;0.98;;;;;;;-0.24;100.00;98474.47;4860030;29;20094;-75
2020/12/30 10:01:05;;;;;;;2.45;1.70;;;;;;;-0.10;100.00;98484.22;4859758;29;20060;-75
2020/12/30 10:04:08;;;;;;;5.07;1.17;;;;;;;0.02;100.00;98483.47;4860010;29;20074;-75
2020/12/30 10:07:11;;;;;;;6.13;1.08;;;;;;;0.17;100.00;98486.50;4860169;29;20101;-74
2020/12/30 10:10:14;;;;;;;2.38;0.65;;;;;;;0.30;100.00;98485.31;4859748;29;20065;-75
2020/12/30 10:13:17;;;;;;;2.13;1.48;;;;;;;0.38;100.00;98488.56;4858903;29;20141;-75
2020/12/30 10:16:52;;;;;;;1.48;0.73;;;;;;;0.40;100.00;98497.88;4859288;29;20085;-76
2020/12/30 10:19:55;;;;;;;0.93;0.93;;;;;;;0.39;100.00;98487.38;4859848;29;20080;-75
2020/12/30 10:22:57;;;;;;;3.47;1.02;;;;;;;0.41;100.00;98498.66;4859667;29;20056;-75
2020/12/30 10:26:00;;;;;;;4.30;1.58;;;;;;;0.40;100.00;98495.16;4859679;29;20063;-75
2020/12/30 10:29:03;;;;;;;7.32;1.33;;;;;;;0.41;100.00;98487.69;4859748;29;20142;-74
2020/12/30 10:32:06;;;;;;;3.83;1.50;;;;;;;0.48;100.00;98492.94;4859595;29;20101;-74
2020/12/30 10:35:10;;;;;;;2.80;1.25;;;;;;;0.48;100.00;98490.19;4859545;29;20048;-78
2020/12/30 10:38:13;;;;;;;3.90;1.20;;;;;;;0.54;100.00;98493.91;4859292;29;20064;-75
2020/12/30 10:41:17;;;;;;;4.03;2.05;;;;;;;0.63;100.00;98485.78;4859633;29;20107;-74
2020/12/30 10:44:21;;;;;;;1.27;1.13;;;;;;;0.72;100.00;98489.38;4859399;29;20418;-75
2020/12/30 10:47:24;;;;;;;0.68;0.68;;;;;;;0.75;100.00;98491.25;4859487;29;20055;-74
2020/12/30 10:50:27;;;;;;;4.85;2.03;;;;;;;0.84;100.00;98496.03;4859204;29;20414;-75
2020/12/30 10:53:31;;;;;;;3.55;2.17;;;;;;;0.92;100.00;98486.34;4859371;29;20101;-75
2020/12/30 10:56:34;;;;;;;5.47;2.95;;;;;;;0.96;100.00;98484.25;4844510;29;20085;-75
2020/12/30 10:59:37;;;;;;;1.17;1.13;;;;;;;0.98;100.00;98487.31;4844049;29;20518;-75
2020/12/30 11:02:40;;;;;;;2.72;1.85;;;;;;;1.02;100.00;98490.69;4844113;29;20085;-75
2020/12/30 11:05:43;;;;;;;8.18;1.95;;;;;;;1.06;100.00;98485.09;4843463;29;20102;-74
2020/12/30 11:08:47;;;;;;;2.47;1.40;;;;;;;1.10;100.00;98486.50;4843443;29;20062;-75
2020/12/30 11:11:50;;;;;;;2.00;1.55;;;;;;;1.13;100.00;98480.13;4843843;29;20080;-75
2020/12/30 11:14:53;;;;;;;2.38;1.70;;;;;;;1.25;100.00;98482.06;4844191;29;20114;-75
2020/12/30 11:17:56;;;;;;;5.65;2.20;;;;;;;1.30;100.00;98478.72;4844020;29;20065;-75
2020/12/30 11:20:58;;;;;;;3.55;1.05;;;;;;;1.29;100.00;98476.44;4844162;29;20519;-75
2020/12/30 11:24:01;;;;;;;2.97;1.77;;;;;;;1.27;100.00;98479.63;4843874;29;20057;-74
2020/12/30 11:27:04;;;;;;;3.00;1.23;;;;;;;1.25;100.00;98482.06;4843804;29;20097;-74
2020/12/30 11:30:08;;;;;;;1.35;1.25;;;;;;;1.21;100.00;98489.63;4842956;29;20423;-74
2020/12/30 11:33:11;;;;;;;0.73;0.73;;;;;;;1.17;100.00;98486.25;4843940;29;20048;-74
2020/12/30 11:36:15;;;;;;;7.75;1.23;;;;;;;1.13;100.00;98484.84;4843656;29;20137;-75
2020/12/30 11:39:18;;;;;;;4.40;1.95;;;;;;;1.12;100.00;98478.59;4843415;29;20057;-75
2020/12/30 11:42:21;;;;;;;1.55;1.20;;;;;;;1.09;100.00;98486.94;4843552;29;20557;-72
2020/12/30 11:45:24;;;;;;;1.27;1.05;;;;;;;1.03;100.00;98481.28;4843756;29;20065;-75
2020/12/30 11:48:27;;;;;;;1.65;0.73;;;;;;;0.97;100.00;98477.56;4843769;29;20488;-74
2020/12/30 11:51:30;;;;;;;2.08;0.50;;;;;;;0.96;100.00;98478.78;4855951;29;20048;-75
2020/12/30 11:54:33;;;;;;;0.70;0.70;;;;;;;0.92;100.00;98485.59;4843648;29;20057;-75
2020/12/30 11:57:36;;;;;;;0.60;0.40;;;;;;;0.94;100.00;98483.94;4861463;29;20106;-74
2020/12/30 12:00:39;;;;;;;7.63;0.80;;;;;;;0.92;100.00;98469.91;4860560;29;20121;-75
2020/12/30 12:03:42;;;;;;;3.13;1.10;;;;;;;0.96;100.00;98478.00;4861317;29;20048;-75
2020/12/30 12:06:44;;;;;;;0.35;0.35;;;;;;;1.00;100.00;98481.38;4861054;29;20080;-74
2020/12/30 12:09:47;;;;;;;0.85;0.40;;;;;;;1.03;100.00;98475.78;4861811;29;20088;-75
2020/12/30 12:12:50;;;;;;;0.77;0.75;;;;;;;1.11;100.00;98471.59;4861828;29;20468;-75
2020/12/30 12:15:53;;;;;;;0.88;0.88;;;;;;;1.15;100.00;98474.97;4861851;29;20048;-75
2020/12/30 12:18:55;;;;;;;0.73;0.73;;;;;;;1.18;100.00;98471.34;4861361;29;20096;-75
2020/12/30 12:21:58;;;;;;;4.22;1.23;;;;;;;1.21;100.00;98472.44;4860578;29;20144;-74
2020/12/30 12:25:01;;;;;;;1.60;0.98;;;;;;;1.27;100.00;98481.59;4860705;29;20537;-75
2020/12/30 12:28:04;;;;;;;2.08;0.95;;;;;;;1.30;100.00;98473.25;4860934;29;20056;-76
2020/12/30 12:31:07;;;;;;;4.53;1.23;;;;;;;1.36;100.00;98476.97;4860463;29;20056;-77
2020/12/30 12:34:10;;;;;;;1.35;0.55;;;;;;;1.42;100.00;98475.16;4861253;29;20053;-76
2020/12/30 12:37:14;;;;;;;1.27;0.95;;;;;;;1.49;100.00;98474.13;4861345;29;20087;-76
2020/12/30 12:40:17;;;;;;;1.58;0.70;;;;;;;1.54;100.00;98470.78;4861251;29;20129;-76
2020/12/30 12:43:20;;;;;;;1.20;1.10;;;;;;;1.58;100.00;98470.69;4861136;29;20633;-76
2020/12/30 12:46:23;;;;;;;3.72;0.90;;;;;;;1.61;100.00;98464.28;4861009;29;20114;-76
2020/12/30 12:49:26;;;;;;;1.38;1.30;;;;;;;1.63;100.00;98467.34;4860598;29;20109;-75
2020/12/30 12:52:29;;;;;;;1.00;0.82;;;;;;;1.63;100.00;98459.88;4861154;29;20454;-74
2020/12/30 12:55:34;;;;;;;5.22;1.15;;;;;;;1.59;100.00;98456.50;4860550;29;20052;-75
2020/12/30 12:58:36;;;;;;;0.65;0.52;;;;;;;1.61;100.00;98458.78;4860849;29;20426;-75
2020/12/30 13:01:45;;;;;;;1.08;0.70;;;;;;;1.58;100.00;98462.47;4860241;29;20418;-74
2020/12/30 13:04:48;;;;;;;4.43;1.15;;;;;;;1.54;100.00;98463.34;4860815;29;20109;-74
2020/12/30 13:07:51;;;;;;;1.40;1.30;;;;;;;1.53;100.00;98470.06;4860996;29;20052;-75
2020/12/30 13:10:54;;;;;;;31.48;6.10;;;;;;;1.51;100.00;98458.78;4860592;29;20159;-75
2020/12/30 13:13:58;;;;;;;2.05;1.10;;;;;;;1.51;100.00;98464.25;4860491;29;20513;-74
2020/12/30 13:17:01;;;;;;;2.72;1.63;;;;;;;1.47;100.00;98460.84;4848691;29;20187;-74
2020/12/30 13:20:04;;;;;;;4.78;2.95;;;;;;;1.46;100.00;98464.81;4860689;29;20104;-75
2020/12/30 13:23:06;;;;;;;5.85;1.45;;;;;;;1.45;100.00;98457.06;4860475;29;20084;-74
2020/12/30 13:26:09;;;;;;;2.20;0.95;;;;;;;1.38;100.00;98469.03;4859654;29;20073;-75
2020/12/30 13:29:12;;;;;;;3.92;1.73;;;;;;;1.34;100.00;98462.91;4860144;29;20088;-74
2020/12/30 13:32:15;;;;;;;1.80;1.50;;;;;;;1.32;100.00;98465.34;4860290;29;20056;-75
2020/12/30 13:35:18;;;;;;;1.65;0.68;;;;;;;1.31;100.00;98463.81;4860194;29;20505;-74
2020/12/30 13:38:22;;;;;;;1.42;0.70;;;;;;;1.28;100.00;98470.19;4858990;29;20105;-74
2020/12/30 13:41:26;;;;;;;0.75;0.55;;;;;;;1.29;100.00;98477.22;4848690;29;20052;-75
2020/12/30 13:44:29;;;;;;;0.77;0.55;;;;;;;1.27;100.00;98474.16;4860163;29;20105;-74
2020/12/30 13:47:33;;;;;;;1.02;1.02;;;;;;;1.28;100.00;98480.38;4860287;29;20101;-75
2020/12/30 13:50:38;;;;;;;3.63;0.77;;;;;;;1.31;100.00;98483.00;4859913;29;20521;-74
2020/12/30 13:53:41;;;;;;;3.92;0.65;;;;;;;1.32;100.00;98484.53;4859624;29;20064;-75
2020/12/30 13:56:44;;;;;;;1.45;1.02;;;;;;;1.32;100.00;98479.03;4857215;29;20056;-75
2020/12/30 13:59:47;;;;;;;8.38;1.30;;;;;;;1.24;100.00;98486.00;4858152;29;20482;-74
2020/12/30 14:02:52;;;;;;;0.73;0.73;;;;;;;1.17;100.00;98477.28;4859732;29;20060;-75
2020/12/30 14:05:55;;;;;;;1.00;0.90;;;;;;;1.14;100.00;98480.91;4859804;29;20055;-75
2020/12/30 14:08:58;;;;;;;2.15;1.85;;;;;;;1.08;100.00;98475.22;4858898;29;20040;-75
2020/12/30 14:12:02;;;;;;;1.17;1.08;;;;;;;1.07;100.00;98479.16;4860133;29;20117;-74
2020/12/30 14:15:05;;;;;;;0.30;0.30;;;;;;;1.05;100.00;98487.06;4859778;29;20092;-74
2020/12/30 14:18:09;;;;;;;1.45;1.02;;;;;;;0.98;100.00;98495.53;4860071;29;20056;-76